sensor_id;sensor_type;location;lat;lon;timestamp;P1;durP1;ratioP1;P2;durP2;ratioP2
10761;SDS011;5433;50.862;4.320;2022-09-24T00:01:16;20.60;;;18.35;;
10761;SDS011;5433;50.862;4.320;2022-09-24T00:03:43;19.38;;;17.30;;
10761;SDS011;5433;50.862;4.320;2022-09-24T00:06:13;19.08;;;16.50;;
10761;SDS011;5433;50.862;4.320;2022-09-24T00:08:39;18.67;;;16.55;;
10761;SDS011;5433;50.862;4.320;2022-09-24T00:11:06;18.50;;;15.70;;
10761;SDS011;5433;50.862;4.320;2022-09-24T00:13:36;20.45;;;16.60;;
10761;SDS011;5433;50.862;4.320;2022-09-24T00:16:08;18.35;;;16.00;;
10761;SDS011;5433;50.862;4.320;2022-09-24T00:18:35;16.38;;;14.52;;
10761;SDS011;5433;50.862;4.320;2022-09-24T00:21:10;17.42;;;15.63;;
10761;SDS011;5433;50.862;4.320;2022-09-24T00:23:36;15.30;;;13.70;;
10761;SDS011;5433;50.862;4.320;2022-09-24T00:26:02;16.00;;;13.57;;
10761;SDS011;5433;50.862;4.320;2022-09-24T00:28:48;14.57;;;13.05;;
10761;SDS011;5433;50.862;4.320;2022-09-24T00:31:14;17.35;;;14.02;;
10761;SDS011;5433;50.862;4.320;2022-09-24T00:33:41;15.82;;;14.13;;
10761;SDS011;5433;50.862;4.320;2022-09-24T00:36:07;16.23;;;13.60;;
10761;SDS011;5433;50.862;4.320;2022-09-24T00:38:33;15.20;;;12.75;;
10761;SDS011;5433;50.862;4.320;2022-09-24T00:41:00;16.33;;;13.48;;
10761;SDS011;5433;50.862;4.320;2022-09-24T00:43:31;14.35;;;12.77;;
10761;SDS011;5433;50.862;4.320;2022-09-24T00:46:12;15.45;;;12.75;;
10761;SDS011;5433;50.862;4.320;2022-09-24T00:48:40;15.25;;;13.57;;
10761;SDS011;5433;50.862;4.320;2022-09-24T00:51:07;16.08;;;13.43;;
10761;SDS011;5433;50.862;4.320;2022-09-24T00:53:33;14.15;;;12.40;;
10761;SDS011;5433;50.862;4.320;2022-09-24T00:56:00;14.82;;;13.02;;
10761;SDS011;5433;50.862;4.320;2022-09-24T00:58:27;15.90;;;12.40;;
10761;SDS011;5433;50.862;4.320;2022-09-24T01:01:01;13.57;;;12.18;;
10761;SDS011;5433;50.862;4.320;2022-09-24T01:03:28;13.77;;;12.07;;
10761;SDS011;5433;50.862;4.320;2022-09-24T01:05:55;14.10;;;12.43;;
10761;SDS011;5433;50.862;4.320;2022-09-24T01:08:22;14.90;;;12.98;;
10761;SDS011;5433;50.862;4.320;2022-09-24T01:19:16;17.30;;;14.18;;
10761;SDS011;5433;50.862;4.320;2022-09-24T01:21:51;15.50;;;13.35;;
10761;SDS011;5433;50.862;4.320;2022-09-24T01:29:38;20.10;;;15.27;;
10761;SDS011;5433;50.862;4.320;2022-09-24T01:34:44;20.50;;;15.85;;
10761;SDS011;5433;50.862;4.320;2022-09-24T01:37:13;19.85;;;15.82;;
10761;SDS011;5433;50.862;4.320;2022-09-24T01:39:40;21.13;;;17.35;;
10761;SDS011;5433;50.862;4.320;2022-09-24T01:42:07;21.77;;;17.27;;
10761;SDS011;5433;50.862;4.320;2022-09-24T01:44:35;22.90;;;16.90;;
10761;SDS011;5433;50.862;4.320;2022-09-24T01:47:02;23.10;;;18.15;;
10761;SDS011;5433;50.862;4.320;2022-09-24T01:49:30;22.77;;;18.25;;
10761;SDS011;5433;50.862;4.320;2022-09-24T01:51:58;22.95;;;17.85;;
10761;SDS011;5433;50.862;4.320;2022-09-24T01:54:27;24.00;;;19.00;;
10761;SDS011;5433;50.862;4.320;2022-09-24T01:56:55;34.78;;;18.30;;
10761;SDS011;5433;50.862;4.320;2022-09-24T01:59:26;24.08;;;19.05;;
10761;SDS011;5433;50.862;4.320;2022-09-24T02:01:59;24.10;;;19.08;;
10761;SDS011;5433;50.862;4.320;2022-09-24T02:04:26;26.08;;;19.65;;
10761;SDS011;5433;50.862;4.320;2022-09-24T02:06:58;23.25;;;18.65;;
10761;SDS011;5433;50.862;4.320;2022-09-24T02:11:59;24.25;;;19.27;;
10761;SDS011;5433;50.862;4.320;2022-09-24T02:14:27;23.20;;;19.00;;
10761;SDS011;5433;50.862;4.320;2022-09-24T02:16:54;23.73;;;18.52;;
10761;SDS011;5433;50.862;4.320;2022-09-24T02:19:21;22.98;;;17.80;;
10761;SDS011;5433;50.862;4.320;2022-09-24T02:21:49;23.60;;;18.75;;
10761;SDS011;5433;50.862;4.320;2022-09-24T02:24:17;23.65;;;18.45;;
10761;SDS011;5433;50.862;4.320;2022-09-24T02:26:44;22.90;;;17.55;;
10761;SDS011;5433;50.862;4.320;2022-09-24T02:29:11;21.08;;;17.23;;
10761;SDS011;5433;50.862;4.320;2022-09-24T02:31:38;21.85;;;17.08;;
10761;SDS011;5433;50.862;4.320;2022-09-24T02:34:12;20.38;;;16.73;;
10761;SDS011;5433;50.862;4.320;2022-09-24T02:36:57;20.58;;;17.25;;
10761;SDS011;5433;50.862;4.320;2022-09-24T02:39:23;22.02;;;17.20;;
10761;SDS011;5433;50.862;4.320;2022-09-24T02:41:50;21.27;;;17.02;;
10761;SDS011;5433;50.862;4.320;2022-09-24T02:44:17;21.42;;;17.35;;
10761;SDS011;5433;50.862;4.320;2022-09-24T02:46:43;21.73;;;17.42;;
10761;SDS011;5433;50.862;4.320;2022-09-24T02:49:10;23.02;;;17.90;;
10761;SDS011;5433;50.862;4.320;2022-09-24T02:51:36;22.20;;;17.30;;
10761;SDS011;5433;50.862;4.320;2022-09-24T02:54:03;22.00;;;17.50;;
10761;SDS011;5433;50.862;4.320;2022-09-24T02:56:29;22.17;;;17.30;;
10761;SDS011;5433;50.862;4.320;2022-09-24T02:58:55;23.08;;;17.55;;
10761;SDS011;5433;50.862;4.320;2022-09-24T03:01:22;23.38;;;17.67;;
10761;SDS011;5433;50.862;4.320;2022-09-24T03:03:48;23.08;;;17.92;;
10761;SDS011;5433;50.862;4.320;2022-09-24T03:06:14;20.95;;;17.33;;
10761;SDS011;5433;50.862;4.320;2022-09-24T03:08:41;23.15;;;17.55;;
10761;SDS011;5433;50.862;4.320;2022-09-24T03:11:07;21.67;;;17.52;;
10761;SDS011;5433;50.862;4.320;2022-09-24T03:13:34;21.55;;;17.35;;
10761;SDS011;5433;50.862;4.320;2022-09-24T03:16:00;24.20;;;18.65;;
10761;SDS011;5433;50.862;4.320;2022-09-24T03:18:26;22.27;;;18.15;;
10761;SDS011;5433;50.862;4.320;2022-09-24T03:20:56;22.83;;;18.42;;
10761;SDS011;5433;50.862;4.320;2022-09-24T03:23:22;23.08;;;18.48;;
10761;SDS011;5433;50.862;4.320;2022-09-24T03:25:49;23.58;;;18.23;;
10761;SDS011;5433;50.862;4.320;2022-09-24T03:28:15;24.27;;;18.25;;
10761;SDS011;5433;50.862;4.320;2022-09-24T03:30:42;25.30;;;18.85;;
10761;SDS011;5433;50.862;4.320;2022-09-24T03:33:24;25.45;;;19.10;;
10761;SDS011;5433;50.862;4.320;2022-09-24T03:35:53;24.25;;;18.90;;
10761;SDS011;5433;50.862;4.320;2022-09-24T03:38:19;25.33;;;19.35;;
10761;SDS011;5433;50.862;4.320;2022-09-24T03:40:45;26.40;;;19.05;;
10761;SDS011;5433;50.862;4.320;2022-09-24T03:43:11;27.00;;;19.58;;
10761;SDS011;5433;50.862;4.320;2022-09-24T03:45:37;26.33;;;20.25;;
10761;SDS011;5433;50.862;4.320;2022-09-24T03:48:03;27.90;;;20.65;;
10761;SDS011;5433;50.862;4.320;2022-09-24T03:50:30;25.85;;;19.83;;
10761;SDS011;5433;50.862;4.320;2022-09-24T03:52:56;26.95;;;20.90;;
10761;SDS011;5433;50.862;4.320;2022-09-24T03:55:22;28.92;;;21.33;;
10761;SDS011;5433;50.862;4.320;2022-09-24T03:57:48;27.88;;;20.95;;
10761;SDS011;5433;50.862;4.320;2022-09-24T04:00:15;27.48;;;20.80;;
10761;SDS011;5433;50.862;4.320;2022-09-24T04:02:41;29.67;;;22.10;;
10761;SDS011;5433;50.862;4.320;2022-09-24T04:05:07;28.48;;;20.85;;
10761;SDS011;5433;50.862;4.320;2022-09-24T04:07:33;28.13;;;21.13;;
10761;SDS011;5433;50.862;4.320;2022-09-24T04:09:59;26.80;;;21.20;;
10761;SDS011;5433;50.862;4.320;2022-09-24T04:12:25;27.52;;;21.83;;
10761;SDS011;5433;50.862;4.320;2022-09-24T04:14:51;28.15;;;21.83;;
10761;SDS011;5433;50.862;4.320;2022-09-24T04:17:17;27.20;;;21.08;;
10761;SDS011;5433;50.862;4.320;2022-09-24T04:19:43;29.58;;;21.67;;
10761;SDS011;5433;50.862;4.320;2022-09-24T04:22:09;31.10;;;22.25;;
10761;SDS011;5433;50.862;4.320;2022-09-24T04:24:35;29.38;;;21.75;;
10761;SDS011;5433;50.862;4.320;2022-09-24T04:27:01;28.30;;;22.05;;
10761;SDS011;5433;50.862;4.320;2022-09-24T04:29:27;29.77;;;21.33;;
10761;SDS011;5433;50.862;4.320;2022-09-24T04:31:54;31.65;;;22.38;;
10761;SDS011;5433;50.862;4.320;2022-09-24T04:34:21;29.23;;;22.20;;
10761;SDS011;5433;50.862;4.320;2022-09-24T04:36:47;29.35;;;22.70;;
10761;SDS011;5433;50.862;4.320;2022-09-24T04:39:13;31.27;;;22.85;;
10761;SDS011;5433;50.862;4.320;2022-09-24T04:41:39;30.15;;;23.00;;
10761;SDS011;5433;50.862;4.320;2022-09-24T04:44:05;27.98;;;22.23;;
10761;SDS011;5433;50.862;4.320;2022-09-24T04:46:31;29.17;;;22.77;;
10761;SDS011;5433;50.862;4.320;2022-09-24T04:48:58;29.88;;;21.77;;
10761;SDS011;5433;50.862;4.320;2022-09-24T04:51:24;30.50;;;22.25;;
10761;SDS011;5433;50.862;4.320;2022-09-24T04:53:50;30.38;;;22.80;;
10761;SDS011;5433;50.862;4.320;2022-09-24T04:56:17;29.13;;;21.83;;
10761;SDS011;5433;50.862;4.320;2022-09-24T04:58:43;31.48;;;21.67;;
10761;SDS011;5433;50.862;4.320;2022-09-24T05:01:09;29.08;;;22.33;;
10761;SDS011;5433;50.862;4.320;2022-09-24T05:03:37;28.67;;;21.83;;
10761;SDS011;5433;50.862;4.320;2022-09-24T05:06:03;29.92;;;22.13;;
10761;SDS011;5433;50.862;4.320;2022-09-24T05:08:29;30.67;;;22.42;;
10761;SDS011;5433;50.862;4.320;2022-09-24T05:10:55;32.45;;;22.00;;
10761;SDS011;5433;50.862;4.320;2022-09-24T05:13:21;32.10;;;23.27;;
10761;SDS011;5433;50.862;4.320;2022-09-24T05:15:47;30.70;;;23.05;;
10761;SDS011;5433;50.862;4.320;2022-09-24T05:18:13;31.05;;;23.23;;
10761;SDS011;5433;50.862;4.320;2022-09-24T05:20:40;33.83;;;23.48;;
10761;SDS011;5433;50.862;4.320;2022-09-24T05:23:06;32.33;;;22.52;;
10761;SDS011;5433;50.862;4.320;2022-09-24T05:25:32;29.13;;;22.05;;
10761;SDS011;5433;50.862;4.320;2022-09-24T05:27:58;30.17;;;21.75;;
10761;SDS011;5433;50.862;4.320;2022-09-24T05:30:24;32.22;;;22.38;;
10761;SDS011;5433;50.862;4.320;2022-09-24T05:32:50;32.30;;;22.48;;
10761;SDS011;5433;50.862;4.320;2022-09-24T05:35:17;28.33;;;21.75;;
10761;SDS011;5433;50.862;4.320;2022-09-24T05:37:43;29.60;;;21.98;;
10761;SDS011;5433;50.862;4.320;2022-09-24T05:40:10;32.67;;;21.92;;
10761;SDS011;5433;50.862;4.320;2022-09-24T05:42:58;30.88;;;22.23;;
10761;SDS011;5433;50.862;4.320;2022-09-24T05:45:25;31.80;;;22.70;;
10761;SDS011;5433;50.862;4.320;2022-09-24T05:47:51;30.90;;;22.90;;
10761;SDS011;5433;50.862;4.320;2022-09-24T05:50:17;29.42;;;22.13;;
10761;SDS011;5433;50.862;4.320;2022-09-24T05:52:43;36.08;;;22.90;;
10761;SDS011;5433;50.862;4.320;2022-09-24T05:55:09;34.03;;;22.77;;
10761;SDS011;5433;50.862;4.320;2022-09-24T05:57:36;31.25;;;22.50;;
10761;SDS011;5433;50.862;4.320;2022-09-24T06:00:04;30.98;;;21.52;;
10761;SDS011;5433;50.862;4.320;2022-09-24T06:02:31;30.70;;;22.70;;
10761;SDS011;5433;50.862;4.320;2022-09-24T06:04:57;31.30;;;22.48;;
10761;SDS011;5433;50.862;4.320;2022-09-24T06:07:23;29.30;;;21.95;;
10761;SDS011;5433;50.862;4.320;2022-09-24T06:09:49;29.33;;;21.80;;
10761;SDS011;5433;50.862;4.320;2022-09-24T06:12:15;33.63;;;21.90;;
10761;SDS011;5433;50.862;4.320;2022-09-24T06:14:41;31.13;;;22.20;;
10761;SDS011;5433;50.862;4.320;2022-09-24T06:17:09;31.52;;;21.42;;
10761;SDS011;5433;50.862;4.320;2022-09-24T06:19:36;33.08;;;22.05;;
10761;SDS011;5433;50.862;4.320;2022-09-24T06:22:04;29.17;;;21.63;;
10761;SDS011;5433;50.862;4.320;2022-09-24T06:24:30;32.70;;;22.35;;
10761;SDS011;5433;50.862;4.320;2022-09-24T06:26:56;29.73;;;22.52;;
10761;SDS011;5433;50.862;4.320;2022-09-24T06:29:22;30.70;;;21.52;;
10761;SDS011;5433;50.862;4.320;2022-09-24T06:31:48;30.38;;;21.45;;
10761;SDS011;5433;50.862;4.320;2022-09-24T06:34:17;26.88;;;20.52;;
10761;SDS011;5433;50.862;4.320;2022-09-24T06:36:43;31.00;;;21.75;;
10761;SDS011;5433;50.862;4.320;2022-09-24T06:39:09;31.05;;;22.05;;
10761;SDS011;5433;50.862;4.320;2022-09-24T06:41:35;30.15;;;21.73;;
10761;SDS011;5433;50.862;4.320;2022-09-24T06:44:01;28.70;;;21.30;;
10761;SDS011;5433;50.862;4.320;2022-09-24T06:46:27;28.70;;;21.33;;
10761;SDS011;5433;50.862;4.320;2022-09-24T06:48:54;32.40;;;21.80;;
10761;SDS011;5433;50.862;4.320;2022-09-24T06:51:20;30.50;;;21.95;;
10761;SDS011;5433;50.862;4.320;2022-09-24T06:53:49;30.65;;;20.48;;
10761;SDS011;5433;50.862;4.320;2022-09-24T06:56:16;28.95;;;20.92;;
10761;SDS011;5433;50.862;4.320;2022-09-24T06:58:42;29.48;;;21.63;;
10761;SDS011;5433;50.862;4.320;2022-09-24T07:01:08;30.10;;;21.42;;
10761;SDS011;5433;50.862;4.320;2022-09-24T07:03:34;29.73;;;21.48;;
10761;SDS011;5433;50.862;4.320;2022-09-24T07:06:03;26.65;;;20.65;;
10761;SDS011;5433;50.862;4.320;2022-09-24T07:08:30;27.80;;;20.80;;
10761;SDS011;5433;50.862;4.320;2022-09-24T07:10:56;30.27;;;21.40;;
10761;SDS011;5433;50.862;4.320;2022-09-24T07:13:22;26.88;;;20.48;;
10761;SDS011;5433;50.862;4.320;2022-09-24T07:15:48;29.33;;;20.55;;
10761;SDS011;5433;50.862;4.320;2022-09-24T07:18:15;27.13;;;21.48;;
10761;SDS011;5433;50.862;4.320;2022-09-24T07:20:41;31.73;;;20.73;;
10761;SDS011;5433;50.862;4.320;2022-09-24T07:23:08;27.38;;;21.33;;
10761;SDS011;5433;50.862;4.320;2022-09-24T07:25:35;29.40;;;20.77;;
10761;SDS011;5433;50.862;4.320;2022-09-24T07:28:02;28.30;;;20.80;;
10761;SDS011;5433;50.862;4.320;2022-09-24T07:30:29;32.35;;;21.73;;
10761;SDS011;5433;50.862;4.320;2022-09-24T07:32:56;27.10;;;20.30;;
10761;SDS011;5433;50.862;4.320;2022-09-24T07:35:23;27.98;;;20.65;;
10761;SDS011;5433;50.862;4.320;2022-09-24T07:38:00;29.90;;;21.63;;
10761;SDS011;5433;50.862;4.320;2022-09-24T07:40:27;28.33;;;21.92;;
10761;SDS011;5433;50.862;4.320;2022-09-24T07:42:53;27.88;;;20.92;;
10761;SDS011;5433;50.862;4.320;2022-09-24T07:45:24;26.50;;;20.27;;
10761;SDS011;5433;50.862;4.320;2022-09-24T07:47:58;28.95;;;20.67;;
10761;SDS011;5433;50.862;4.320;2022-09-24T07:50:26;27.85;;;20.55;;
10761;SDS011;5433;50.862;4.320;2022-09-24T07:52:52;28.73;;;20.95;;
10761;SDS011;5433;50.862;4.320;2022-09-24T07:55:21;27.13;;;20.92;;
10761;SDS011;5433;50.862;4.320;2022-09-24T07:57:48;25.77;;;19.83;;
10761;SDS011;5433;50.862;4.320;2022-09-24T08:00:15;24.08;;;19.52;;
10761;SDS011;5433;50.862;4.320;2022-09-24T08:02:43;29.20;;;20.83;;
10761;SDS011;5433;50.862;4.320;2022-09-24T08:05:09;27.15;;;19.67;;
10761;SDS011;5433;50.862;4.320;2022-09-24T08:07:35;24.48;;;19.83;;
10761;SDS011;5433;50.862;4.320;2022-09-24T08:10:02;25.60;;;19.55;;
10761;SDS011;5433;50.862;4.320;2022-09-24T08:12:28;25.15;;;19.95;;
10761;SDS011;5433;50.862;4.320;2022-09-24T08:14:54;26.75;;;19.20;;
10761;SDS011;5433;50.862;4.320;2022-09-24T08:17:20;26.02;;;19.40;;
10761;SDS011;5433;50.862;4.320;2022-09-24T08:19:46;23.55;;;19.02;;
10761;SDS011;5433;50.862;4.320;2022-09-24T08:22:12;23.40;;;19.00;;
10761;SDS011;5433;50.862;4.320;2022-09-24T08:24:39;24.55;;;18.05;;
10761;SDS011;5433;50.862;4.320;2022-09-24T08:27:06;27.35;;;19.45;;
10761;SDS011;5433;50.862;4.320;2022-09-24T08:29:32;25.75;;;19.27;;
10761;SDS011;5433;50.862;4.320;2022-09-24T08:31:58;22.13;;;17.23;;
10761;SDS011;5433;50.862;4.320;2022-09-24T08:34:24;23.33;;;18.17;;
10761;SDS011;5433;50.862;4.320;2022-09-24T08:36:50;23.58;;;17.88;;
10761;SDS011;5433;50.862;4.320;2022-09-24T08:39:16;23.67;;;18.35;;
10761;SDS011;5433;50.862;4.320;2022-09-24T08:41:51;20.75;;;16.77;;
10761;SDS011;5433;50.862;4.320;2022-09-24T08:47:08;20.05;;;16.73;;
10761;SDS011;5433;50.862;4.320;2022-09-24T08:49:50;20.80;;;16.52;;
10761;SDS011;5433;50.862;4.320;2022-09-24T08:55:06;21.55;;;16.80;;
10761;SDS011;5433;50.862;4.320;2022-09-24T08:57:40;21.63;;;16.25;;
10761;SDS011;5433;50.862;4.320;2022-09-24T09:00:14;19.67;;;16.08;;
10761;SDS011;5433;50.862;4.320;2022-09-24T09:02:49;20.13;;;16.15;;
10761;SDS011;5433;50.862;4.320;2022-09-24T09:05:38;19.95;;;15.80;;
10761;SDS011;5433;50.862;4.320;2022-09-24T09:08:20;22.08;;;16.17;;
10761;SDS011;5433;50.862;4.320;2022-09-24T09:10:50;19.70;;;15.45;;
10761;SDS011;5433;50.862;4.320;2022-09-24T09:13:20;20.05;;;15.50;;
10761;SDS011;5433;50.862;4.320;2022-09-24T09:15:58;18.38;;;15.43;;
10761;SDS011;5433;50.862;4.320;2022-09-24T09:18:31;20.42;;;15.30;;
10761;SDS011;5433;50.862;4.320;2022-09-24T09:21:12;18.92;;;15.20;;
10761;SDS011;5433;50.862;4.320;2022-09-24T09:23:45;18.52;;;15.02;;
10761;SDS011;5433;50.862;4.320;2022-09-24T09:26:12;18.27;;;14.57;;
10761;SDS011;5433;50.862;4.320;2022-09-24T09:28:38;17.85;;;14.40;;
10761;SDS011;5433;50.862;4.320;2022-09-24T09:38:34;18.42;;;14.02;;
10761;SDS011;5433;50.862;4.320;2022-09-24T09:41:05;16.48;;;13.88;;
10761;SDS011;5433;50.862;4.320;2022-09-24T09:43:41;18.65;;;14.52;;
10761;SDS011;5433;50.862;4.320;2022-09-24T09:46:20;18.10;;;15.15;;
10761;SDS011;5433;50.862;4.320;2022-09-24T09:48:52;20.15;;;15.43;;
10761;SDS011;5433;50.862;4.320;2022-09-24T09:51:20;18.05;;;15.35;;
10761;SDS011;5433;50.862;4.320;2022-09-24T09:53:53;19.83;;;15.13;;
10761;SDS011;5433;50.862;4.320;2022-09-24T09:56:21;17.30;;;14.85;;
10761;SDS011;5433;50.862;4.320;2022-09-24T09:58:48;18.85;;;16.30;;
10761;SDS011;5433;50.862;4.320;2022-09-24T10:01:19;19.35;;;16.52;;
10761;SDS011;5433;50.862;4.320;2022-09-24T10:03:46;20.88;;;17.13;;
10761;SDS011;5433;50.862;4.320;2022-09-24T10:06:34;20.80;;;17.42;;
10761;SDS011;5433;50.862;4.320;2022-09-24T10:09:16;22.00;;;17.30;;
10761;SDS011;5433;50.862;4.320;2022-09-24T10:11:46;22.23;;;17.33;;
10761;SDS011;5433;50.862;4.320;2022-09-24T10:14:14;22.00;;;17.27;;
10761;SDS011;5433;50.862;4.320;2022-09-24T10:16:42;21.33;;;17.27;;
10761;SDS011;5433;50.862;4.320;2022-09-24T10:21:41;22.85;;;18.63;;
10761;SDS011;5433;50.862;4.320;2022-09-24T10:24:11;23.15;;;18.10;;
10761;SDS011;5433;50.862;4.320;2022-09-24T10:26:40;26.70;;;18.73;;
10761;SDS011;5433;50.862;4.320;2022-09-24T10:29:12;21.88;;;17.90;;
10761;SDS011;5433;50.862;4.320;2022-09-24T10:31:57;21.30;;;17.95;;
10761;SDS011;5433;50.862;4.320;2022-09-24T10:34:26;21.67;;;18.52;;
10761;SDS011;5433;50.862;4.320;2022-09-24T10:36:59;23.20;;;18.80;;
10761;SDS011;5433;50.862;4.320;2022-09-24T10:39:26;21.85;;;18.77;;
10761;SDS011;5433;50.862;4.320;2022-09-24T10:41:53;22.38;;;17.73;;
10761;SDS011;5433;50.862;4.320;2022-09-24T10:44:21;22.83;;;17.75;;
10761;SDS011;5433;50.862;4.320;2022-09-24T11:05:20;19.83;;;16.42;;
10761;SDS011;5433;50.862;4.320;2022-09-24T11:10:29;19.48;;;16.77;;
10761;SDS011;5433;50.862;4.320;2022-09-24T11:15:40;19.10;;;16.45;;
10761;SDS011;5433;50.862;4.320;2022-09-24T11:20:37;19.85;;;15.82;;
10761;SDS011;5433;50.862;4.320;2022-09-24T11:23:06;17.67;;;15.77;;
10761;SDS011;5433;50.862;4.320;2022-09-24T11:25:39;19.00;;;16.40;;
10761;SDS011;5433;50.862;4.320;2022-09-24T11:28:19;20.77;;;17.10;;
10761;SDS011;5433;50.862;4.320;2022-09-24T11:33:35;19.17;;;17.08;;
10761;SDS011;5433;50.862;4.320;2022-09-24T11:43:47;24.48;;;18.58;;
10761;SDS011;5433;50.862;4.320;2022-09-24T11:53:53;21.15;;;18.83;;
10761;SDS011;5433;50.862;4.320;2022-09-24T11:56:29;21.25;;;19.00;;
10761;SDS011;5433;50.862;4.320;2022-09-24T11:59:16;23.30;;;18.73;;
10761;SDS011;5433;50.862;4.320;2022-09-24T12:01:45;21.75;;;18.25;;
10761;SDS011;5433;50.862;4.320;2022-09-24T12:04:20;21.42;;;19.00;;
10761;SDS011;5433;50.862;4.320;2022-09-24T12:09:51;22.80;;;19.92;;
10761;SDS011;5433;50.862;4.320;2022-09-24T12:12:17;24.83;;;19.20;;
10761;SDS011;5433;50.862;4.320;2022-09-24T12:14:48;21.42;;;19.05;;
10761;SDS011;5433;50.862;4.320;2022-09-24T12:17:27;21.77;;;19.00;;
10761;SDS011;5433;50.862;4.320;2022-09-24T12:19:58;22.08;;;18.30;;
10761;SDS011;5433;50.862;4.320;2022-09-24T12:22:25;21.20;;;18.92;;
10761;SDS011;5433;50.862;4.320;2022-09-24T12:24:52;19.77;;;17.60;;
10761;SDS011;5433;50.862;4.320;2022-09-24T12:27:24;22.83;;;19.52;;
10761;SDS011;5433;50.862;4.320;2022-09-24T12:33:58;21.35;;;19.05;;
10761;SDS011;5433;50.862;4.320;2022-09-24T12:36:03;22.52;;;19.38;;
10761;SDS011;5433;50.862;4.320;2022-09-24T12:38:34;22.60;;;19.00;;
10761;SDS011;5433;50.862;4.320;2022-09-24T12:41:10;21.75;;;18.58;;
10761;SDS011;5433;50.862;4.320;2022-09-24T12:46:06;22.60;;;19.67;;
10761;SDS011;5433;50.862;4.320;2022-09-24T12:48:37;21.58;;;19.27;;
10761;SDS011;5433;50.862;4.320;2022-09-24T12:51:06;21.60;;;18.88;;
10761;SDS011;5433;50.862;4.320;2022-09-24T12:53:39;22.05;;;18.08;;
10761;SDS011;5433;50.862;4.320;2022-09-24T12:56:06;20.40;;;17.60;;
10761;SDS011;5433;50.862;4.320;2022-09-24T12:58:40;19.17;;;17.10;;
10761;SDS011;5433;50.862;4.320;2022-09-24T13:01:24;21.20;;;17.70;;
10761;SDS011;5433;50.862;4.320;2022-09-24T13:06:48;22.85;;;18.83;;
10761;SDS011;5433;50.862;4.320;2022-09-24T13:09:31;21.88;;;19.58;;
10761;SDS011;5433;50.862;4.320;2022-09-24T13:14:27;22.52;;;20.08;;
10761;SDS011;5433;50.862;4.320;2022-09-24T13:16:54;24.63;;;20.92;;
10761;SDS011;5433;50.862;4.320;2022-09-24T13:19:22;23.02;;;20.55;;
10761;SDS011;5433;50.862;4.320;2022-09-24T13:21:52;25.38;;;21.73;;
10761;SDS011;5433;50.862;4.320;2022-09-24T13:24:30;25.42;;;21.38;;
10761;SDS011;5433;50.862;4.320;2022-09-24T13:30:03;28.08;;;23.35;;
10761;SDS011;5433;50.862;4.320;2022-09-24T13:32:31;23.60;;;21.10;;
10761;SDS011;5433;50.862;4.320;2022-09-24T13:35:02;21.02;;;18.85;;
10761;SDS011;5433;50.862;4.320;2022-09-24T13:37:33;21.60;;;17.90;;
10761;SDS011;5433;50.862;4.320;2022-09-24T13:40:05;19.90;;;17.67;;
10761;SDS011;5433;50.862;4.320;2022-09-24T13:42:53;19.33;;;17.30;;
10761;SDS011;5433;50.862;4.320;2022-09-24T13:45:21;19.75;;;16.75;;
10761;SDS011;5433;50.862;4.320;2022-09-24T13:50:18;19.52;;;15.40;;
10761;SDS011;5433;50.862;4.320;2022-09-24T13:52:55;17.63;;;15.65;;
10761;SDS011;5433;50.862;4.320;2022-09-24T13:57:48;18.52;;;16.73;;
10761;SDS011;5433;50.862;4.320;2022-09-24T14:00:19;18.75;;;16.85;;
10761;SDS011;5433;50.862;4.320;2022-09-24T14:03:03;17.23;;;15.43;;
10761;SDS011;5433;50.862;4.320;2022-09-24T14:05:31;18.00;;;15.35;;
10761;SDS011;5433;50.862;4.320;2022-09-24T14:08:00;17.38;;;15.48;;
10761;SDS011;5433;50.862;4.320;2022-09-24T14:10:28;16.85;;;15.18;;
10761;SDS011;5433;50.862;4.320;2022-09-24T14:12:58;17.13;;;15.43;;
10761;SDS011;5433;50.862;4.320;2022-09-24T14:15:24;16.05;;;14.50;;
10761;SDS011;5433;50.862;4.320;2022-09-24T14:17:57;15.02;;;13.50;;
10761;SDS011;5433;50.862;4.320;2022-09-24T14:20:24;15.35;;;13.75;;
10761;SDS011;5433;50.862;4.320;2022-09-24T14:22:52;15.10;;;13.60;;
10761;SDS011;5433;50.862;4.320;2022-09-24T14:25:28;14.73;;;12.98;;
10761;SDS011;5433;50.862;4.320;2022-09-24T14:27:56;15.68;;;13.80;;
10761;SDS011;5433;50.862;4.320;2022-09-24T14:30:24;15.05;;;13.60;;
10761;SDS011;5433;50.862;4.320;2022-09-24T14:35:23;15.07;;;13.68;;
10761;SDS011;5433;50.862;4.320;2022-09-24T14:37:50;14.48;;;13.07;;
10761;SDS011;5433;50.862;4.320;2022-09-24T14:40:18;13.38;;;12.07;;
10761;SDS011;5433;50.862;4.320;2022-09-24T14:42:45;11.80;;;10.60;;
10761;SDS011;5433;50.862;4.320;2022-09-24T14:45:19;12.45;;;11.35;;
10761;SDS011;5433;50.862;4.320;2022-09-24T14:47:46;12.43;;;11.18;;
10761;SDS011;5433;50.862;4.320;2022-09-24T14:55:46;13.00;;;11.82;;
10761;SDS011;5433;50.862;4.320;2022-09-24T15:01:01;11.60;;;10.60;;
10761;SDS011;5433;50.862;4.320;2022-09-24T15:03:40;11.98;;;10.88;;
10761;SDS011;5433;50.862;4.320;2022-09-24T15:06:12;11.45;;;10.40;;
10761;SDS011;5433;50.862;4.320;2022-09-24T15:08:39;11.93;;;10.82;;
10761;SDS011;5433;50.862;4.320;2022-09-24T15:11:06;12.18;;;10.90;;
10761;SDS011;5433;50.862;4.320;2022-09-24T15:13:39;12.10;;;11.00;;
10761;SDS011;5433;50.862;4.320;2022-09-24T15:16:18;11.80;;;10.73;;
10761;SDS011;5433;50.862;4.320;2022-09-24T15:18:54;11.48;;;10.50;;
10761;SDS011;5433;50.862;4.320;2022-09-24T15:21:22;11.95;;;10.77;;
10761;SDS011;5433;50.862;4.320;2022-09-24T15:23:49;10.00;;;9.07;;
10761;SDS011;5433;50.862;4.320;2022-09-24T15:26:15;10.35;;;9.23;;
10761;SDS011;5433;50.862;4.320;2022-09-24T15:28:41;10.50;;;8.57;;
10761;SDS011;5433;50.862;4.320;2022-09-24T15:31:07;9.43;;;8.57;;
10761;SDS011;5433;50.862;4.320;2022-09-24T15:33:33;9.68;;;8.65;;
10761;SDS011;5433;50.862;4.320;2022-09-24T15:35:59;9.48;;;8.48;;
10761;SDS011;5433;50.862;4.320;2022-09-24T15:38:25;8.73;;;7.90;;
10761;SDS011;5433;50.862;4.320;2022-09-24T15:40:51;8.93;;;8.02;;
10761;SDS011;5433;50.862;4.320;2022-09-24T15:45:43;8.05;;;7.35;;
10761;SDS011;5433;50.862;4.320;2022-09-24T15:48:09;8.65;;;7.05;;
10761;SDS011;5433;50.862;4.320;2022-09-24T15:50:36;8.68;;;7.25;;
10761;SDS011;5433;50.862;4.320;2022-09-24T15:53:03;7.68;;;6.97;;
10761;SDS011;5433;50.862;4.320;2022-09-24T15:55:29;8.18;;;7.10;;
10761;SDS011;5433;50.862;4.320;2022-09-24T15:57:56;7.70;;;6.90;;
10761;SDS011;5433;50.862;4.320;2022-09-24T16:00:22;8.88;;;7.97;;
10761;SDS011;5433;50.862;4.320;2022-09-24T16:02:50;11.38;;;8.90;;
10761;SDS011;5433;50.862;4.320;2022-09-24T16:05:16;11.05;;;9.55;;
10761;SDS011;5433;50.862;4.320;2022-09-24T16:07:43;9.55;;;8.57;;
10761;SDS011;5433;50.862;4.320;2022-09-24T16:10:09;9.00;;;8.10;;
10761;SDS011;5433;50.862;4.320;2022-09-24T16:12:35;8.57;;;7.68;;
10761;SDS011;5433;50.862;4.320;2022-09-24T16:15:01;8.73;;;7.90;;
10761;SDS011;5433;50.862;4.320;2022-09-24T16:17:28;8.95;;;6.72;;
10761;SDS011;5433;50.862;4.320;2022-09-24T16:19:54;8.65;;;6.82;;
10761;SDS011;5433;50.862;4.320;2022-09-24T16:22:20;7.47;;;5.72;;
10761;SDS011;5433;50.862;4.320;2022-09-24T16:24:46;7.63;;;5.60;;
10761;SDS011;5433;50.862;4.320;2022-09-24T16:27:12;5.68;;;5.18;;
10761;SDS011;5433;50.862;4.320;2022-09-24T16:29:38;6.50;;;5.80;;
10761;SDS011;5433;50.862;4.320;2022-09-24T16:32:04;7.38;;;6.40;;
10761;SDS011;5433;50.862;4.320;2022-09-24T16:34:30;8.63;;;6.65;;
10761;SDS011;5433;50.862;4.320;2022-09-24T16:36:57;7.50;;;6.70;;
10761;SDS011;5433;50.862;4.320;2022-09-24T16:39:23;7.10;;;6.32;;